Tiempo atmosférico en la estación meteorológica de Santiago De Compostela, A Coruña (240 m.)



Fecha
DESCASC
Temp. máxima en grados centígrados (hora)
DESCASC
Temp. mínima en grados centígrados (hora)
DESCASC
Temp. media en grados centígrados
DESCASC
Racha de viento máxima en m/sg (hora)
DESCASC
Velocidad máxima media en intervalos de 10 minutos(hora)
DESCASC
Precipitaciones diarias en mm
DESCASC
Precipitaciones de 00:00 a 06:00 en mm
DESCASC
Precipitaciones de 06:00 a 12:00 en mm
DESCASC
Precipitaciones de 12:00 a 18:00 en mm
DESCASC
Precipitaciones de 18:00 a 24:00 en mm
DESCASC
18-04-2019 19 (16:00) 9.5 (08:00) 14.3 8.33 (19:40) 2.78 (17:00) 0.8 0.7 0.1 0 0
17-04-2019 16.3 (14:10) 9.5 (03:30) 12.9 8.89 (14:40) 2.22 (14:20) 7.8 0 0 1.3 6.5
16-04-2019 18.9 (17:00) 8.6 (00:00) 13.8 7.78 (15:30) 3.06 (14:20) 0.1 0.1 0 0 0
15-04-2019 15.8 (02:20) 10.1 (00:00) 13 11.39 (09:00) 3.33 (09:30) 13.2 4.8 6.5 1.9 0
14-04-2019 19.4 (16:00) 13.3 (00:00) 16.3 6.94 (16:00) 2.78 (17:40) 0.4 0.2 0.2 0 0
13-04-2019 16.9 (15:20) 8.5 (00:00) 12.7 6.67 (14:50) 2.78 (15:30) 0 0 0 0 0
12-04-2019 19.1 (15:30) 3 (00:00) 11.1 5.56 (16:50) 2.22 (17:30) 0 0 0 0 0
11-04-2019 17.7 (15:20) 4.5 (00:00) 11.1 6.94 (19:50) 2.78 (19:30) 0 0 0 0 0
10-04-2019 15.8 (16:40) 6.8 (00:00) 11.3 7.22 (18:00) 2.5 (19:10) 0.7 0.7 0 0 0
09-04-2019 12.9 (14:30) 6.7 (00:00) 9.8 8.61 (14:00) 2.78 (15:10) 16.4 9.2 2 3.9 1.3
08-04-2019 13.7 (15:10) 6.8 (00:00) 10.3 13.06 (18:50) 4.44 (14:50) 10.8 1.1 0.6 0.7 8.4
07-04-2019 11 (13:20) 2.8 (00:00) 6.9 6.67 (14:20) 1.67 (13:50) 21 0 0 11.8 9.2
06-04-2019 11.8 (16:20) 5.3 (00:00) 8.6 7.78 (04:10) 2.22 (04:10) 19.2 8.9 5.4 4.2 0.7
05-04-2019 10.1 (14:50) 3.6 (00:00) 6.9 8.89 (12:10) 2.78 (12:10) 16 0.4 1.7 9.9 4
04-04-2019 8.3 (15:00) 3 (00:00) 5.7 10.28 (14:50) 3.06 (13:40) 24.9 0 0 10.6 14.3
03-04-2019 12.8 (16:10) 4.9 (00:00) 8.9 9.72 (15:30) 3.89 (19:00) 1.3 0 0.3 0 1
02-04-2019 15.3 (15:00) 8.4 (00:00) 11.8 8.33 (18:00) 2.78 (15:30) 0 0 0 0 0
01-04-2019 22.9 (16:20) 8.5 (00:00) 15.7 5.56 (15:10) 2.22 (12:00) 0 0 0 0 0
31-03-2019 23.1 (15:00) 5.2 (00:00) 14.2 9.17 (17:20) 3.33 (17:20) 0 0 0 0 0
30-03-2019 22 (15:10) 4.6 (00:00) 13.3 6.11 (16:20) 2.22 (21:20) 0 0 0 0 0
29-03-2019 23.2 (14:50) 6.7 (00:00) 15 7.22 (16:00) 2.5 (16:10) 0 0 0 0 0
28-03-2019 23.5 (15:30) 7.3 (00:00) 15.4 7.22 (18:50) 3.33 (18:50) 0 0 0 0 0
27-03-2019 24.1 (15:20) 5.6 (00:00) 14.9 7.22 (18:10) 2.5 (17:50) 0 0 0 0 0
26-03-2019 21.4 (15:10) 7.4 (00:00) 14.4 10.56 (16:50) 3.61 (16:30) 0 0 0 0 0
25-03-2019 20.1 (14:50) 7.8 (00:00) 14 8.89 (17:10) 3.06 (16:40) 0 0 0 0 0
24-03-2019 23.6 (16:00) 7.5 (00:00) 15.6 9.72 (18:30) 4.17 (10:00) 0 0 0 0 0
23-03-2019 23.5 (15:00) 5 (00:00) 14.3 7.22 (18:10) 2.78 (22:10) 0 0 0 0 0
22-03-2019 20.8 (15:40) 4.1 (00:00) 12.4 5 (16:00) 2.22 (21:20) 0 0 0 0 0
21-03-2019 20.1 (16:00) 5.2 (00:00) 12.7 6.11 (05:50) 2.78 (05:50) 0 0 0 0 0

Gráficas

Temp. máximas Temp. mínimas Temp. medias Precipitaciones Rachas de viento máximas Velocidades máximas media en intervalos de 10 minutos

Datos horarios

Fecha y hora oficial Temperatura (ºC) Velocidad del viento (km/h) Dirección del viento Racha (km/h) Dirección de racha Precipitación (mm) Presión (hPa) Tendencia (hPa) Humedad (%)
2019-04-19 23:00:00 14.8 5 Nordeste 24 Nordeste 0 -- -- 69
2019-04-19 22:00:00 15.8 7 Nordeste 27 Norte 0 -- -- 64
2019-04-19 21:00:00 17 6 Nordeste 28 Nordeste 0 -- -- 62
2019-04-19 20:00:00 18 8 Nordeste 31 Nordeste 0 -- -- 60
2019-04-19 19:00:00 18.7 13 Nordeste 35 Nordeste 0 -- -- 56
2019-04-19 18:00:00 19.3 13 Nordeste 36 Nordeste 0 -- -- 54
2019-04-19 17:00:00 19.9 10 Nordeste 30 Nordeste 0 -- -- 51
2019-04-19 16:00:00 19.4 9 Nordeste 27 Norte 0 -- -- 52
2019-04-19 15:00:00 18.3 9 Nordeste 30 Nordeste 0 -- -- 58
2019-04-19 14:00:00 17.5 8 Nordeste 35 Nordeste 0 -- -- 60
2019-04-19 13:00:00 16.8 11 Nordeste 34 Nordeste 0 -- -- 65
2019-04-19 12:00:00 15.6 6 Nordeste 32 Nordeste 0 -- -- 71
2019-04-19 11:00:00 14.2 7 Nordeste 27 Norte 0 -- -- 79
2019-04-19 10:00:00 12.7 9 Nordeste 29 Nordeste 0 -- -- 89
2019-04-19 09:00:00 12 9 Nordeste 30 Nordeste 0 -- -- 91
2019-04-19 08:00:00 11.9 10 Nordeste 29 Nordeste 0 -- -- 90
2019-04-19 07:00:00 12 9 Nordeste 32 Nordeste 0 -- -- 89
2019-04-19 06:00:00 11.6 9 Nordeste 24 Nordeste 0 -- -- 89
2019-04-19 05:00:00 11.3 6 Nordeste 21 Nordeste 0 -- -- 87
2019-04-19 04:00:00 11.1 7 Nordeste 23 Nordeste 0 -- -- 85
2019-04-19 03:00:00 11.1 3 Nordeste 12 Norte 0 -- -- 84
2019-04-19 02:00:00 11.6 3 Nordeste 14 Nordeste 0 -- -- 82
2019-04-19 01:00:00 11.8 4 Nordeste 17 Nordeste 0 -- -- 81
2019-04-19 00:00:00 12.4 4 Nordeste 13 Nordeste 0 -- -- 82
2019-04-18 23:00:00 13.1 2 Nordeste 14 Norte 0 -- -- 79
2019-04-18 22:00:00 13.5 4 Norte 17 Nordeste 0 -- -- 74
2019-04-18 21:00:00 14 6 Nordeste 23 Nordeste 0 -- -- 67
2019-04-18 20:00:00 14.9 10 Nordeste 30 Nordeste 0 -- -- 63
2019-04-18 19:00:00 15.9 10 Norte 27 Nordeste 0 -- -- 60
2019-04-18 18:00:00 17.1 9 Nordeste 24 Nordeste 0 -- -- 59
2019-04-18 17:00:00 17.4 10 Nordeste 21 Nordeste 0 -- -- 52
2019-04-18 16:00:00 18.4 5 Norte 14 Nordeste 0 -- -- 48
2019-04-18 15:00:00 16.7 4 Norte 12 Norte 0 -- -- 57
2019-04-18 14:00:00 16.8 0 Calma 7 Sur 0 -- -- 57
2019-04-18 13:00:00 14.4 0 Calma 10 Oeste 0 -- -- 67
2019-04-18 12:00:00 14.2 0 Calma 14 Oeste 0 -- -- 68
2019-04-18 11:00:00 12.9 3 Sur 13 Sudeste 0 -- -- 75
2019-04-18 10:00:00 11.1 0 Calma 5 Este 0 -- -- 95
2019-04-18 09:00:00 10.1 0 Calma -- -- 0 -- -- 96
2019-04-18 08:00:00 9.5 0 Calma -- -- 0 -- -- 95
2019-04-18 07:00:00 10.2 0 Calma 8 Sur 0.1 -- -- 93
2019-04-18 06:00:00 10.7 0 Calma 12 Sudeste 0 -- -- 93
2019-04-18 05:00:00 11.2 0 Calma 8 Sudeste 0.4 -- -- 93
2019-04-18 04:00:00 11.2 0 Calma 8 Sudeste 0 -- -- 93
2019-04-18 03:00:00 11.4 0 Calma 9 Sudeste 0.1 -- -- 93
2019-04-18 02:00:00 11.4 2 Sudeste 7 Sudeste 0.2 -- -- 94
2019-04-18 01:00:00 11.6 2 Sudeste 8 Este 0 -- -- 94
2019-04-18 00:00:00 11.7 2 Sudeste 8 Sur 2.2 -- -- 94
2019-04-17 23:00:00 11.9 2 Sudeste 8 Sudeste 1.4 -- -- 93
2019-04-17 22:00:00 12 0 Calma 9 Sudeste 0.1 -- -- 93
2019-04-17 21:00:00 12.2 3 Sudeste 8 Sudeste 0.1 -- -- 93
2019-04-17 20:00:00 12.2 2 Sudoeste 12 Sudoeste 1.1 -- -- 93
2019-04-17 19:00:00 12.2 4 Sudoeste 19 Sudoeste 1.6 -- -- 93
2019-04-17 18:00:00 12.6 8 Oeste 19 Sudoeste 1 -- -- 90
2019-04-17 17:00:00 13.6 5 Oeste 17 Oeste 0.2 -- -- 85
2019-04-17 16:00:00 14.2 8 Oeste 25 Oeste 0 -- -- 78
2019-04-17 15:00:00 15.8 7 Sur 32 Sudoeste 0.1 -- -- 64
2019-04-17 14:00:00 16.2 8 Sudoeste 22 Oeste 0 -- -- 60
2019-04-17 13:00:00 15.2 4 Sudoeste 16 Sudeste 0 -- -- 58
2019-04-17 12:00:00 14.8 4 Sur 13 Sur 0 -- -- 61
2019-04-17 11:00:00 12.9 2 Sudoeste 9 Sudoeste 0 -- -- 67
2019-04-17 10:00:00 12.1 3 Sudoeste 12 Sudoeste 0 -- -- 68
2019-04-17 09:00:00 11.4 4 Sudoeste 9 Sudoeste 0 -- -- 73
2019-04-17 08:00:00 10.7 0 Calma 8 Sudoeste 0 -- -- 79
2019-04-17 07:00:00 9.6 0 Calma 3 Este 0 -- -- 86
2019-04-17 06:00:00 9.7 0 Calma 4 Sudeste 0 -- -- 85
2019-04-17 05:00:00 9.9 0 Calma 8 Sur 0 -- -- 81
2019-04-17 04:00:00 9.5 3 Nordeste 8 Nordeste 0 -- -- 79
2019-04-17 03:00:00 9.7 2 Nordeste 8 Nordeste 0 -- -- 79
2019-04-17 02:00:00 10 2 Nordeste 10 Nordeste 0 -- -- 77
2019-04-17 01:00:00 10.4 0 Calma 8 Norte 0 -- -- 75
2019-04-17 00:00:00 11.1 3 Nordeste 6 Nordeste 0 -- -- 73
2019-04-16 23:00:00 12.2 0 Calma -- -- 0 -- -- 65
2019-04-16 22:00:00 13.7 0 Calma 5 Norte 0 -- -- 64
2019-04-16 21:00:00 14.8 0 Calma 8 Oeste 0 -- -- 53
2019-04-16 20:00:00 16 3 Oeste 16 Sudoeste 0 -- -- 49
2019-04-16 19:00:00 17.3 6 Sudoeste 19 Oeste 0 -- -- 47
2019-04-16 18:00:00 17.9 7 Oeste 21 Oeste 0 -- -- 45
2019-04-16 17:00:00 18.8 6 Sudoeste 19 Sudoeste 0 -- -- 42
2019-04-16 16:00:00 18.4 6 Oeste 28 Oeste 0 -- -- 42
2019-04-16 15:00:00 17.8 9 Sudoeste 27 Sudoeste 0 -- -- 40
2019-04-16 14:00:00 17 7 Sudoeste 27 Sudoeste 0 -- -- 45
2019-04-16 13:00:00 14.9 7 Sudoeste 22 Oeste 0 -- -- 56
2019-04-16 12:00:00 13.7 4 Sudoeste 13 Sudoeste 0 -- -- 63
2019-04-16 11:00:00 12 3 Sur 9 Sudeste 0 -- -- 68
2019-04-16 10:00:00 10.5 4 Sudeste 12 Sudeste 0 -- -- 75
2019-04-16 09:00:00 9.2 4 Sudeste 10 Sur 0 -- -- 83
2019-04-16 08:00:00 8.7 2 Sudeste 11 Sudeste 0 -- -- 86
2019-04-16 07:00:00 9.2 3 Sudeste 9 Sudeste 0 -- -- 87
2019-04-16 06:00:00 9.3 3 Sur 9 Sudeste 0 -- -- 88
2019-04-16 05:00:00 10 4 Sur 12 Sur 0 -- -- 86
2019-04-16 04:00:00 10.1 3 Sur 10 Sudeste 0 -- -- 88
2019-04-16 03:00:00 9.7 2 Sur 8 Sudeste 0 -- -- 88
2019-04-16 02:00:00 9.8 2 Sudeste 6 Sur 0.1 -- -- 88
2019-04-16 01:00:00 9.6 0 Calma 6 Sudeste 0 -- -- 87
2019-04-16 00:00:00 10.1 0 Calma 8 Sur 0 -- -- 86
2019-04-15 23:00:00 10.6 3 Sur 10 Sudoeste 0 -- -- 83
2019-04-15 22:00:00 11.3 4 Sudoeste 23 Sudoeste 0 -- -- 78
2019-04-15 21:00:00 12.1 5 Sudoeste 19 Sudoeste 0 -- -- 74
2019-04-15 20:00:00 12.8 6 Oeste 24 Oeste 0 -- -- 65
2019-04-15 19:00:00 13.4 5 Oeste 23 Oeste 0 -- -- 62
2019-04-15 18:00:00 13.7 10 Sudoeste 25 Sudoeste 0 -- -- 60
2019-04-15 17:00:00 13.5 5 Oeste 21 Sudoeste 0 -- -- 64
2019-04-15 16:00:00 13.7 6 Oeste 28 Oeste 0 -- -- 68
2019-04-15 15:00:00 13.7 10 Oeste 29 Oeste 0 -- -- 76
2019-04-15 14:00:00 12.3 6 Oeste 20 Oeste 1.1 -- -- 91
2019-04-15 13:00:00 12.1 8 Sudoeste 27 Sudoeste 0.8 -- -- 93
2019-04-15 12:00:00 11.6 8 Sudoeste 26 Oeste 2.1 -- -- 93
2019-04-15 11:00:00 11.8 9 Sudoeste 29 Oeste 0.2 -- -- 93
2019-04-15 10:00:00 12.9 8 Sudoeste 39 Sudoeste 2.4 -- -- 93
2019-04-15 09:00:00 13.8 8 Sur 41 Sur 0.3 -- -- 92
2019-04-15 08:00:00 13.7 5 Sudoeste 23 Sudoeste 0.3 -- -- 93
2019-04-15 07:00:00 13.9 6 Sudoeste 32 Oeste 1.2 -- -- 94
2019-04-15 06:00:00 13.9 9 Sudoeste 23 Sudoeste 0.1 -- -- 96
2019-04-15 05:00:00 14.1 9 Sudoeste 26 Sudoeste 3.3 -- -- 96
2019-04-15 04:00:00 15.1 5 Sudoeste 16 Oeste 1.4 -- -- 93
2019-04-15 03:00:00 15.8 4 Sur 14 Sur 0 -- -- 90
2019-04-15 02:00:00 15.6 2 Sur 9 Sur 0 -- -- 90
2019-04-15 01:00:00 15.7 3 Sur 12 Sudeste 0 -- -- 90
2019-04-15 00:00:00 15.7 3 Sur 14 Sur 0 -- -- 90
2019-04-14 23:00:00 15.9 2 Sur 13 Sur 0 -- -- 90
2019-04-14 22:00:00 16 2 Sudoeste 13 Sudoeste 0 -- -- 90
2019-04-14 21:00:00 16.2 3 Sudoeste 14 Sudoeste 0 -- -- 91
2019-04-14 20:00:00 16.1 6 Sudoeste 19 Oeste 0 -- -- 91
2019-04-14 19:00:00 16.3 5 Sudoeste 17 Oeste 0 -- -- 89
2019-04-14 18:00:00 16.7 6 Oeste 21 Oeste 0 -- -- 86
2019-04-14 17:00:00 17.7 9 Oeste 25 Sudoeste 0 -- -- 79
2019-04-14 16:00:00 19.2 8 Sudoeste 25 Sudoeste 0 -- -- 74
2019-04-14 15:00:00 17.3 5 Oeste 19 Oeste 0 -- -- 83
2019-04-14 14:00:00 16.6 8 Oeste 22 Oeste 0 -- -- 88
2019-04-14 13:00:00 15.9 7 Oeste 20 Oeste 0 -- -- 93
2019-04-14 12:00:00 15 2 Oeste 12 Oeste 0 -- -- 96
2019-04-14 11:00:00 14.4 3 Sudoeste 11 Oeste 0 -- -- 96
2019-04-14 10:00:00 14 0 Calma 8 Oeste 0.1 -- -- 96
2019-04-14 09:00:00 13.8 2 Sudoeste 8 Sudoeste 0 -- -- 96
2019-04-14 08:00:00 13.6 0 Calma 9 Sur 0 -- -- 96
2019-04-14 07:00:00 13.4 0 Calma 6 Sur 0.1 -- -- 96
2019-04-14 06:00:00 13.3 0 Calma 9 Oeste 0 -- -- 96
2019-04-14 05:00:00 13.4 0 Calma 12 Sudoeste 0.1 -- -- 96
2019-04-14 04:00:00 13.4 2 Oeste 8 Oeste 0 -- -- 96
2019-04-14 03:00:00 13.3 0 Calma 11 Oeste 0 -- -- 96
2019-04-14 02:00:00 13.4 3 Sudoeste 12 Sur 0.1 -- -- 96
2019-04-14 01:00:00 13.4 4 Sudoeste 13 Sudoeste 0 -- -- 96
2019-04-14 00:00:00 13.3 2 Sudoeste 12 Oeste 0 -- -- 96
2019-04-13 23:00:00 13.3 3 Sudoeste 12 Oeste 0 -- -- 96
2019-04-13 22:00:00 13.4 5 Sudoeste 12 Sudoeste 0 -- -- 95
2019-04-13 21:00:00 13.6 4 Sudoeste 18 Sudoeste 0 -- -- 93
2019-04-13 20:00:00 13.8 5 Sudoeste 14 Oeste 0 -- -- 92
2019-04-13 19:00:00 13.8 3 Sudoeste 18 Oeste 0 -- -- 89
2019-04-13 18:00:00 14.1 7 Sudoeste 20 Sudoeste 0 -- -- 83
2019-04-13 17:00:00 14.8 6 Sudoeste 17 Oeste 0 -- -- 72
2019-04-13 16:00:00 15.8 7 Sudoeste 23 Oeste 0 -- -- 60
2019-04-13 15:00:00 16.2 8 Sudoeste 24 Oeste 0 -- -- 54
2019-04-13 14:00:00 15.3 4 Oeste 15 Oeste 0 -- -- 59
2019-04-13 13:00:00 15.3 5 Oeste 16 Sudoeste 0 -- -- 52
2019-04-13 12:00:00 14.9 5 Oeste 17 Sudoeste 0 -- -- 57
2019-04-13 11:00:00 13.6 3 Sudoeste 12 Sudoeste 0 -- -- 63
2019-04-13 10:00:00 11.3 0 Calma 4 Oeste 0 -- -- 79
2019-04-13 09:00:00 9.9 0 Calma 3 Sudeste 0 -- -- 86
2019-04-13 08:00:00 9.2 0 Calma 3 Nordeste 0 -- -- 87
2019-04-13 07:00:00 8.9 0 Calma 6 Nordeste 0 -- -- 88
2019-04-13 06:00:00 8.7 0 Calma 4 Nordeste 0 -- -- 87
2019-04-13 05:00:00 8.7 0 Calma 5 Nordeste 0 -- -- 87
2019-04-13 04:00:00 8.7 0 Calma 3 Nordeste 0 -- -- 86
2019-04-13 03:00:00 9.1 0 Calma 6 Nordeste 0 -- -- 83
2019-04-13 02:00:00 9.1 0 Calma 7 Nordeste 0 -- -- 82
2019-04-13 01:00:00 9.8 0 Calma 4 Nordeste 0 -- -- 79
2019-04-13 00:00:00 11 0 Calma 7 Nordeste 0 -- -- 72
2019-04-12 23:00:00 12 0 Calma -- -- 0 -- -- 66
2019-04-12 22:00:00 13.2 0 Calma 9 Oeste 0 -- -- 54
2019-04-12 21:00:00 14.8 2 Oeste 14 Sudoeste 0 -- -- 47
2019-04-12 20:00:00 16.6 6 Sudoeste 13 Sudoeste 0 -- -- 45
2019-04-12 19:00:00 16.8 3 Sudoeste 16 Oeste 0 -- -- 47
2019-04-12 18:00:00 17.7 5 Sudoeste 18 Sudoeste 0 -- -- 45
2019-04-12 17:00:00 18.2 6 Oeste 20 Sudoeste 0 -- -- 45
2019-04-12 16:00:00 19.1 4 Sudoeste 18 Oeste 0 -- -- 42
2019-04-12 15:00:00 18.6 2 Oeste 19 Sudoeste 0 -- -- 45
2019-04-12 14:00:00 16.8 3 Oeste 13 Oeste 0 -- -- 45
2019-04-12 13:00:00 14.8 4 Sudoeste 10 Sudoeste 0 -- -- 56
2019-04-12 12:00:00 9.9 3 Nordeste 12 Nordeste 0 -- -- 90
2019-04-12 11:00:00 6.2 5 Nordeste 13 Norte 0 -- -- 97
2019-04-12 10:00:00 4.2 2 Nordeste 12 Norte 0 -- -- 97
2019-04-12 09:00:00 3.3 4 Nordeste 14 Nordeste 0 -- -- 97
2019-04-12 08:00:00 3.9 3 Nordeste 14 Nordeste 0 -- -- 94
2019-04-12 07:00:00 5.3 2 Nordeste 11 Norte 0 -- -- 93
2019-04-12 06:00:00 5.6 4 Nordeste 12 Nordeste 0 -- -- 93
2019-04-12 05:00:00 6.3 2 Nordeste 11 Nordeste 0 -- -- 93
2019-04-12 04:00:00 6.8 4 Nordeste 10 Nordeste 0 -- -- 93
2019-04-12 03:00:00 7 3 Nordeste 9 Nordeste 0 -- -- 91
2019-04-12 02:00:00 7.9 5 Nordeste 11 Nordeste 0 -- -- 89
2019-04-12 01:00:00 8.4 0 Calma 9 Nordeste 0 -- -- 84
2019-04-12 00:00:00 9.4 2 Nordeste 14 Nordeste 0 -- -- 79
2019-04-11 23:00:00 9.8 6 Nordeste 16 Nordeste 0 -- -- 74
2019-04-11 22:00:00 11 6 Nordeste 23 Nordeste 0 -- -- 64
2019-04-11 21:00:00 12.9 10 Nordeste 22 Nordeste 0 -- -- 56
2019-04-11 20:00:00 14.5 9 Nordeste 25 Nordeste 0 -- -- 51
2019-04-11 19:00:00 15.9 5 Nordeste 20 Norte 0 -- -- 43
2019-04-11 18:00:00 17 5 Nordeste 15 Nordeste 0 -- -- 38
2019-04-11 17:00:00 16.9 6 Nordeste 17 Nordeste 0 -- -- 38
2019-04-11 16:00:00 17.2 6 Nordeste 15 Nordeste 0 -- -- 39
2019-04-11 15:00:00 16.9 4 Nordeste 15 Sudoeste 0 -- -- 39
2019-04-11 14:00:00 15.2 3 Nordeste 14 Nordeste 0 -- -- 47
2019-04-11 13:00:00 13.8 3 Este 10 Este 0 -- -- 62
2019-04-11 12:00:00 9.8 0 Calma 7 Nordeste 0 -- -- 92
2019-04-11 11:00:00 7.4 2 Nordeste 9 Nordeste 0 -- -- 98
2019-04-11 10:00:00 5.5 4 Nordeste 11 Norte 0 -- -- 98
2019-04-11 09:00:00 4.7 3 Norte 9 Norte 0 -- -- 98
2019-04-11 08:00:00 4.6 0 Calma 11 Nordeste 0 -- -- 98
2019-04-11 07:00:00 5 4 Nordeste 13 Nordeste 0 -- -- 98
2019-04-11 06:00:00 5.7 5 Nordeste 17 Norte 0 -- -- 98
2019-04-11 05:00:00 6.5 4 Nordeste 13 Nordeste 0 -- -- 97
2019-04-11 04:00:00 6.6 0 Calma 6 Este 0 -- -- 96
2019-04-11 03:00:00 6.6 2 Nordeste 6 Nordeste 0 -- -- 95
2019-04-11 02:00:00 6.7 0 Calma 5 Nordeste 0 -- -- 93
2019-04-11 01:00:00 7.7 0 Calma 4 Nordeste 0 -- -- 91
2019-04-11 00:00:00 8.4 0 Calma 8 Norte 0 -- -- 87
2019-04-10 23:00:00 9 2 Nordeste 13 Norte 0 -- -- 83
2019-04-10 22:00:00 10 3 Nordeste 15 Nordeste 0 -- -- 79
2019-04-10 21:00:00 11.3 4 Nordeste 19 Nordeste 0 -- -- 70
2019-04-10 20:00:00 12.7 8 Norte 23 Norte 0 -- -- 60
2019-04-10 19:00:00 13.8 8 Norte 23 Nordeste 0 -- -- 54
2019-04-10 18:00:00 14.7 9 Norte 26 Norte 0 -- -- 50
2019-04-10 17:00:00 15.3 4 Norte 24 Nordeste 0 -- -- 52
2019-04-10 16:00:00 14.8 5 Norte 21 Norte 0 -- -- 55
2019-04-10 15:00:00 14.8 4 Norte 23 Nordeste 0 -- -- 62
2019-04-10 14:00:00 13 4 Norte 17 Norte 0 -- -- 68
2019-04-10 13:00:00 12.2 3 Norte 12 Nordeste 0 -- -- 79
2019-04-10 12:00:00 10.3 0 Calma 5 Sudoeste 0 -- -- 95
2019-04-10 11:00:00 9.3 2 Oeste 6 Oeste 0 -- -- 97
2019-04-10 10:00:00 8.5 0 Calma 5 Sudoeste 0 -- -- 97
2019-04-10 09:00:00 7.9 2 Oeste 8 Oeste 0 -- -- 97
2019-04-10 08:00:00 7.4 0 Calma 5 Oeste 0 -- -- 97
2019-04-10 07:00:00 7.2 0 Calma 3 Oeste 0 -- -- 97
2019-04-10 06:00:00 7.2 0 Calma 3 Noroeste 0 -- -- 96
2019-04-10 05:00:00 8.1 0 Calma 4 Oeste 0 -- -- 96
2019-04-10 04:00:00 8.1 0 Calma 3 Oeste 0 -- -- 96
2019-04-10 03:00:00 8.6 0 Calma 7 Sudoeste 0 -- -- 96
2019-04-10 02:00:00 8.6 0 Calma 6 Oeste 0.7 -- -- 94
2019-04-10 01:00:00 8.9 0 Calma 8 Sudoeste 0 -- -- 92
2019-04-10 00:00:00 9.1 0 Calma 6 Oeste 0 -- -- 90
2019-04-09 23:00:00 9.2 4 Oeste 14 Sudoeste 0 -- -- 88
2019-04-09 22:00:00 9.6 4 Oeste 14 Oeste 0 -- -- 90
2019-04-09 21:00:00 9.9 3 Oeste 15 Oeste 0.5 -- -- 89
2019-04-09 20:00:00 10.4 5 Oeste 23 Sudoeste 0.1 -- -- 85
2019-04-09 19:00:00 10.6 6 Oeste 26 Oeste 0.7 -- -- 80
2019-04-09 18:00:00 11.7 5 Oeste 26 Oeste 0 -- -- 74
2019-04-09 17:00:00 11.8 7 Oeste 20 Oeste 0.8 -- -- 88
2019-04-09 16:00:00 10.2 8 Sudoeste 30 Oeste 1.1 -- -- 85
2019-04-09 15:00:00 11.5 9 Oeste 29 Oeste 0.3 -- -- 75
2019-04-09 14:00:00 12 8 Oeste 31 Oeste 0.2 -- -- 79
2019-04-09 13:00:00 9.3 5 Oeste 19 Sudoeste 1.5 -- -- 86
2019-04-09 12:00:00 8.9 4 Sudoeste 22 Sudoeste 1.9 -- -- 84
2019-04-09 11:00:00 10.1 9 Oeste 19 Sudoeste 0 -- -- 81
2019-04-09 10:00:00 8.2 2 Sudoeste 8 Oeste 0 -- -- 94
2019-04-09 09:00:00 7.1 3 Sudoeste 11 Sudoeste 0 -- -- 95
2019-04-09 08:00:00 6.7 0 Calma 6 Sudoeste 0 -- -- 93
2019-04-09 07:00:00 7.5 0 Calma 9 Sudoeste 0.1 -- -- 93
2019-04-09 06:00:00 8.1 3 Oeste 10 Sudoeste 0.1 -- -- 94
2019-04-09 05:00:00 8.5 0 Calma 17 Sudoeste 0.9 -- -- 94
2019-04-09 04:00:00 9 3 Sur 20 Oeste 0.1 -- -- 94
2019-04-09 03:00:00 9.1 4 Sudoeste 26 Sudoeste 0 -- -- 94
2019-04-09 02:00:00 9.1 6 Sudoeste 25 Oeste 0.6 -- -- 95
2019-04-09 01:00:00 9.1 5 Oeste 28 Oeste 7.5 -- -- 95
2019-04-09 00:00:00 9.2 6 Sudoeste 22 Sudoeste 1 -- -- 94
2019-04-08 23:00:00 8.5 3 Sudoeste 22 Sur 1.2 -- -- 92
2019-04-08 22:00:00 8.3 4 Sudoeste 36 Oeste 5.2 -- -- 89
2019-04-08 21:00:00 10.5 7 Sur 32 Sudoeste 1 -- -- 82
2019-04-08 20:00:00 11.4 7 Sudoeste 43 Oeste 0 -- -- 69
2019-04-08 19:00:00 11.8 12 Sudoeste 47 Oeste 0 -- -- 69
2019-04-08 18:00:00 11.2 7 Sudoeste 43 Sudoeste 0.5 -- -- 70
2019-04-08 17:00:00 12 10 Sudoeste 37 Oeste 0 -- -- 62
2019-04-08 16:00:00 11.9 12 Sudoeste 43 Sudoeste 0 -- -- 65
2019-04-08 15:00:00 13.3 13 Sudoeste 43 Sudoeste 0 -- -- 58
2019-04-08 14:00:00 12.7 12 Sudoeste 42 Oeste 0.1 -- -- 60
2019-04-08 13:00:00 12.7 14 Sudoeste 33 Sudoeste 0.1 -- -- 58
2019-04-08 12:00:00 11.2 8 Sudoeste 31 Oeste 0.3 -- -- 70
2019-04-08 11:00:00 10.7 6 Sudoeste 23 Oeste 0.1 -- -- 78
2019-04-08 10:00:00 9.5 4 Sudoeste 12 Oeste 0 -- -- 88
2019-04-08 09:00:00 7.3 0 Calma 5 Oeste 0 -- -- 91
2019-04-08 08:00:00 7.6 0 Calma 14 Oeste 0 -- -- 88
2019-04-08 07:00:00 8.1 3 Oeste 12 Sur 0.2 -- -- 90
2019-04-08 06:00:00 8.5 2 Sur 11 Sudoeste 0 -- -- 90
2019-04-08 05:00:00 9 0 Calma 13 Oeste 0 -- -- 94
2019-04-08 04:00:00 9.3 2 Sur 11 Sur 0.1 -- -- 96
2019-04-08 03:00:00 9.7 2 Sudoeste 8 Sur 0 -- -- 96
2019-04-08 02:00:00 9.9 0 Calma 10 Oeste 0.1 -- -- 96
2019-04-08 01:00:00 10.1 3 Oeste 11 Sudoeste 0.9 -- -- 96
2019-04-08 00:00:00 10.2 3 Oeste 19 Oeste 0.1 -- -- 97
2019-04-07 23:00:00 10.8 4 Sudoeste 14 Sudoeste 0.7 -- -- 97
2019-04-07 22:00:00 10.8 3 Sur 15 Sudoeste 4.7 -- -- 97
2019-04-07 21:00:00 10.1 4 Sur 11 Sur 2.1 -- -- 96
2019-04-07 20:00:00 9.5 4 Sur 15 Sudeste 0.4 -- -- 96
2019-04-07 19:00:00 9.3 4 Este 10 Este 1.2 -- -- 95
2019-04-07 18:00:00 9 0 Calma 12 Sur 7 -- -- 93
2019-04-07 17:00:00 9.5 3 Sudeste 19 Sudeste 2.4 -- -- 89
2019-04-07 16:00:00 9.7 6 Sur 18 Sur 0.8 -- -- 87
2019-04-07 15:00:00 9.7 5 Sur 24 Sur 1.4 -- -- 85
2019-04-07 14:00:00 10.3 5 Sudoeste 18 Sur 0.2 -- -- 76
2019-04-07 13:00:00 10.8 5 Sur 16 Sur 0 -- -- 75
2019-04-07 12:00:00 8.8 2 Sur 10 Sudeste 0 -- -- 88
2019-04-07 11:00:00 6.7 3 Sur 12 Sudeste 0 -- -- 97
2019-04-07 10:00:00 5.4 0 Calma 4 Sur 0 -- -- 99
2019-04-07 09:00:00 3.7 0 Calma 4 Nordeste 0 -- -- 99
2019-04-07 08:00:00 3.2 0 Calma 5 Sur 0 -- -- 99
2019-04-07 07:00:00 3 0 Calma 3 Nordeste 0 -- -- 98
2019-04-07 06:00:00 3 0 Calma 2 Nordeste 0 -- -- 98
2019-04-07 05:00:00 3.4 0 Calma 0 Calma 0 -- -- 97
2019-04-07 04:00:00 3.6 0 Calma -- -- 0 -- -- 97
2019-04-07 03:00:00 4.3 0 Calma 2 Sur 0 -- -- 97
2019-04-07 02:00:00 4.7 0 Calma 2 Oeste 0 -- -- 95
2019-04-07 01:00:00 5.6 0 Calma 4 Sudoeste 0 -- -- 94
2019-04-07 00:00:00 6 0 Calma 0 Calma 0 -- -- 93
2019-04-06 23:00:00 6.4 0 Calma 5 Nordeste 0.4 -- -- 91
2019-04-06 22:00:00 6.6 0 Calma 9 Oeste 0 -- -- 86
2019-04-06 21:00:00 7.5 2 Oeste 10 Norte 0.1 -- -- 79
2019-04-06 20:00:00 8.6 4 Oeste 16 Sudoeste 0 -- -- 78
2019-04-06 19:00:00 9.3 0 Calma 16 Sudoeste 0.2 -- -- 76
2019-04-06 18:00:00 9.5 3 Noroeste 18 Noroeste 0.3 -- -- 77
2019-04-06 17:00:00 10.8 5 Oeste 20 Sudoeste 0 -- -- 62
2019-04-06 16:00:00 11.4 5 Oeste 27 Oeste 0 -- -- 61
2019-04-06 15:00:00 9 5 Sudoeste 23 Nordeste 1.2 -- -- 86
2019-04-06 14:00:00 8.2 3 Noroeste 28 Sudoeste 1.7 -- -- 88
2019-04-06 13:00:00 7.6 4 Oeste 16 Oeste 1 -- -- 86
2019-04-06 12:00:00 7.4 6 Oeste 27 Sudoeste 1.5 -- -- 91
2019-04-06 11:00:00 7.2 5 Oeste 20 Oeste 0.7 -- -- 92
2019-04-06 10:00:00 6.6 3 Oeste 22 Noroeste 0.4 -- -- 96
2019-04-06 09:00:00 6.4 4 Sudoeste 11 Sudoeste 1.2 -- -- 95
2019-04-06 08:00:00 6.5 2 Sudoeste 18 Oeste 0.5 -- -- 94
2019-04-06 07:00:00 6.6 4 Sudoeste 22 Oeste 1.1 -- -- 93
2019-04-06 06:00:00 6.5 6 Sudoeste 24 Sur 0.9 -- -- 93
2019-04-06 05:00:00 6.2 4 Sur 28 Oeste 1.6 -- -- 93
2019-04-06 04:00:00 6 4 Sudoeste 21 Oeste 1.3 -- -- 96
2019-04-06 03:00:00 5.5 3 Sur 17 Sur 3.3 -- -- 95
2019-04-06 02:00:00 5.7 4 Sur 19 Sudoeste 1.3 -- -- 93
2019-04-06 01:00:00 5.7 6 Sudoeste 26 Oeste 0.5 -- -- 95
2019-04-06 00:00:00 6 0 Calma 11 Sudoeste 0.2 -- -- 95
2019-04-05 23:00:00 6.2 2 Oeste 30 Oeste 1.1 -- -- 96
2019-04-05 22:00:00 5.8 0 Calma 5 Sur 0 -- -- 93
2019-04-05 21:00:00 6.6 0 Calma 18 Nordeste 0.7 -- -- 91
2019-04-05 20:00:00 7.5 3 Sur 9 Sudeste 1.1 -- -- 91
2019-04-05 19:00:00 7.5 4 Sudoeste 15 Oeste 0.9 -- -- 87
2019-04-05 18:00:00 7.6 3 Sur 10 Sudeste 2 -- -- 85
2019-04-05 17:00:00 7.2 0 Calma 15 Sur 3.1 -- -- 86
2019-04-05 16:00:00 8.2 2 Sudoeste 17 Sudoeste 0.8 -- -- 80
2019-04-05 15:00:00 9.5 4 Sur 13 Sudoeste 0.3 -- -- 81
2019-04-05 14:00:00 7.6 3 Sudoeste 15 Sur 0.8 -- -- 82
2019-04-05 13:00:00 6.4 3 Sudoeste 32 Sudoeste 2.9 -- -- 90
2019-04-05 12:00:00 7.3 6 Sudoeste 28 Oeste 0.8 -- -- 85
2019-04-05 11:00:00 5.9 8 Sudoeste 23 Sur 0.7 -- -- 88
2019-04-05 10:00:00 5.1 6 Sur 19 Sur 0 -- -- 92
2019-04-05 09:00:00 4.4 5 Sur 19 Sudoeste 0.2 -- -- 94
2019-04-05 08:00:00 3.7 0 Calma 14 Sur 0 -- -- 95
2019-04-05 07:00:00 3.8 0 Calma 8 Este 0 -- -- 94
2019-04-05 06:00:00 4.2 4 Sudeste 12 Sudeste 0.1 -- -- 94
2019-04-05 05:00:00 4.7 4 Sudeste 12 Sudeste 0.1 -- -- 93
2019-04-05 04:00:00 4.8 2 Sur 19 Sudoeste 0.2 -- -- 93
2019-04-05 03:00:00 5.5 0 Calma 8 Sudoeste 0 -- -- 94
2019-04-05 02:00:00 5.9 0 Calma 13 Noroeste 0 -- -- 94
2019-04-05 01:00:00 6.2 0 Calma 10 Sur 0 -- -- 97
2019-04-05 00:00:00 6.7 0 Calma 10 Sudeste 0.1 -- -- 97
2019-04-04 23:00:00 6.9 3 Sur 7 Sudeste 0.5 -- -- 97
2019-04-04 22:00:00 7.1 2 Sur 14 Sudoeste 2.4 -- -- 97
2019-04-04 21:00:00 7.3 3 Sur 13 Sur 2.1 -- -- 97
2019-04-04 20:00:00 7.9 4 Sur 12 Sudeste 1.7 -- -- 97
2019-04-04 19:00:00 7.9 2 Sur 15 Sudoeste 7.5 -- -- 96
2019-04-04 18:00:00 7.8 6 Sudoeste 24 Sudoeste 4.6 -- -- 93
2019-04-04 17:00:00 8.1 6 Sudoeste 26 Oeste 2.8 -- -- 93
2019-04-04 16:00:00 7.9 10 Sudoeste 31 Sur 2 -- -- 92
2019-04-04 15:00:00 8.1 8 Sudoeste 37 Sudoeste 0.8 -- -- 90
2019-04-04 14:00:00 8.1 7 Sudoeste 28 Oeste 0.2 -- -- 89
2019-04-04 13:00:00 7.8 10 Sudoeste 27 Sudoeste 0.2 -- -- 89
2019-04-04 12:00:00 7.5 5 Sudoeste 21 Sudoeste 0 -- -- 85
2019-04-04 11:00:00 6.5 6 Sudoeste 16 Sudoeste 0 -- -- 92
2019-04-04 10:00:00 4.9 0 Calma 6 Sudeste 0 -- -- 99
2019-04-04 09:00:00 3.6 0 Calma 0 Calma 0 -- -- 99
2019-04-04 08:00:00 3.1 0 Calma 5 Sudeste 0 -- -- 99
2019-04-04 07:00:00 3.2 0 Calma 5 Sudeste 0 -- -- 99
2019-04-04 06:00:00 3.6 0 Calma 4 Sudeste 0 -- -- 99
2019-04-04 05:00:00 3.3 0 Calma 6 Sudoeste 0 -- -- 98
2019-04-04 04:00:00 3.9 0 Calma 5 Oeste 0 -- -- 98
2019-04-04 03:00:00 3.7 0 Calma 3 Nordeste 0 -- -- 97
2019-04-04 02:00:00 4.3 0 Calma 6 Sudoeste 0 -- -- 95
2019-04-04 01:00:00 4.7 0 Calma 4 Oeste 0 -- -- 93
2019-04-04 00:00:00 5.5 0 Calma 7 Nordeste 0 -- -- 91
2019-04-03 23:00:00 6.2 0 Calma 11 Nordeste 0.1 -- -- 89
2019-04-03 22:00:00 5.9 6 Norte 19 Norte 0.4 -- -- 86
2019-04-03 21:00:00 7.1 3 Norte 32 Nordeste 0.5 -- -- 72
2019-04-03 20:00:00 9 7 Norte 31 Norte 0 -- -- 60
2019-04-03 19:00:00 9.1 14 Nordeste 33 Nordeste 0 -- -- 56
2019-04-03 18:00:00 10.9 10 Norte 33 Nordeste 0 -- -- 47
2019-04-03 17:00:00 10.8 8 Norte 29 Nordeste 0 -- -- 51
2019-04-03 16:00:00 12.4 7 Norte 35 Noroeste 0 -- -- 48
2019-04-03 15:00:00 11 5 Norte 23 Norte 0 -- -- 59
2019-04-03 14:00:00 9.9 9 Norte 32 Norte 0 -- -- 57
2019-04-03 13:00:00 10.5 3 Noroeste 31 Norte 0 -- -- 62
2019-04-03 12:00:00 9 7 Norte 28 Norte 0.2 -- -- 74
2019-04-03 11:00:00 8 2 Noroeste 14 Norte 0 -- -- 79
2019-04-03 10:00:00 7 3 Norte 13 Noroeste 0 -- -- 89
2019-04-03 09:00:00 5.4 0 Calma 6 Oeste 0 -- -- 97
2019-04-03 08:00:00 5.4 0 Calma 8 Norte 0.1 -- -- 97
2019-04-03 07:00:00 5 0 Calma 6 Norte 0 -- -- 96
2019-04-03 06:00:00 5.6 0 Calma 3 Sudoeste 0 -- -- 95
2019-04-03 05:00:00 6.4 0 Calma -- -- -- -- -- 92
2019-04-03 04:00:00 7.2 2 Norte 13 Noroeste 0 -- -- 89
2019-04-03 03:00:00 7 0 Calma 9 Nordeste 0 -- -- 88
2019-04-03 02:00:00 7.2 2 Norte 8 Norte 0 -- -- 86
2019-04-03 01:00:00 7.3 0 Calma 3 Noroeste 0 -- -- 82
2019-04-03 00:00:00 8.4 0 Calma 17 Nordeste 0 -- -- 79
2019-04-02 23:00:00 9.1 6 Norte 21 Norte 0 -- -- 80
2019-04-02 22:00:00 9.2 7 Norte 21 Norte 0 -- -- 81
2019-04-02 21:00:00 9.8 6 Norte 27 Nordeste 0 -- -- 72
2019-04-02 20:00:00 11.2 6 Norte 28 Nordeste 0 -- -- 59
2019-04-02 19:00:00 12.8 8 Norte 26 Norte 0 -- -- 56
2019-04-02 18:00:00 13.7 9 Norte 30 Nordeste 0 -- -- 54
2019-04-02 17:00:00 14.5 5 Norte 22 Norte 0 -- -- 54
2019-04-02 16:00:00 14.4 9 Norte 24 Nordeste 0 -- -- 55
2019-04-02 15:00:00 15 7 Norte 19 Norte 0 -- -- 58
2019-04-02 14:00:00 14.3 2 Norte 17 Norte 0 -- -- 64
2019-04-02 13:00:00 13.2 6 Norte 16 Nordeste 0 -- -- 72
2019-04-02 12:00:00 12.3 4 Nordeste 15 Nordeste 0 -- -- 77
2019-04-02 11:00:00 11.3 5 Nordeste 14 Nordeste 0 -- -- 81
2019-04-02 10:00:00 10.9 5 Nordeste 14 Norte 0 -- -- 82
2019-04-02 09:00:00 10.3 3 Norte 12 Nordeste 0 -- -- 84
2019-04-02 08:00:00 10.1 0 Calma 14 Nordeste 0 -- -- 85
2019-04-02 07:00:00 10.2 4 Norte 18 Norte 0 -- -- 86
2019-04-02 06:00:00 10.1 3 Norte 18 Nordeste 0 -- -- 88
2019-04-02 05:00:00 9.8 5 Nordeste 12 Nordeste 0 -- -- 92
2019-04-02 04:00:00 9.4 0 Calma 14 Nordeste 0 -- -- 94
2019-04-02 03:00:00 9.3 5 Nordeste 15 Nordeste 0 -- -- 93
2019-04-02 02:00:00 9.5 3 Este 12 Nordeste 0 -- -- 90
2019-04-02 01:00:00 10.5 3 Nordeste 10 Nordeste 0 -- -- 86
2019-04-02 00:00:00 11 2 Norte 9 Nordeste 0 -- -- 76
2019-04-01 23:00:00 12.3 0 Calma 6 Nordeste 0 -- -- 68
2019-04-01 22:00:00 13.8 0 Calma 6 Oeste 0 -- -- 69
2019-04-01 21:00:00 15.8 3 Oeste 6 Sudoeste 0 -- -- 60
2019-04-01 20:00:00 16.9 3 Oeste 17 Sudoeste 0 -- -- 53
2019-04-01 19:00:00 18.4 3 Oeste 16 Nordeste 0 -- -- 48
2019-04-01 18:00:00 20.1 3 Norte 16 Nordeste 0 -- -- 38
2019-04-01 17:00:00 21.4 4 Nordeste 18 Nordeste 0 -- -- 31
2019-04-01 16:00:00 22.2 4 Nordeste 20 Nordeste 0 -- -- 33
2019-04-01 15:00:00 21.9 2 Nordeste 18 Nordeste 0 -- -- 37
2019-04-01 14:00:00 20.8 6 Nordeste 18 Nordeste 0 -- -- 39
2019-04-01 13:00:00 20 5 Sudeste 18 Sudeste 0 -- -- 41
2019-04-01 12:00:00 17.3 8 Sudeste 19 Este 0 -- -- 49
2019-04-01 11:00:00 13.8 3 Nordeste 13 Nordeste 0 -- -- 68
2019-04-01 10:00:00 11.2 5 Nordeste 12 Nordeste 0 -- -- 77
2019-04-01 09:00:00 8.8 5 Nordeste 14 Nordeste 0 -- -- 86
2019-04-01 08:00:00 8.6 5 Nordeste 16 Nordeste 0 -- -- 87
2019-04-01 07:00:00 9 5 Nordeste 14 Nordeste 0 -- -- 86
2019-04-01 06:00:00 9.2 3 Nordeste 12 Nordeste 0 -- -- 84
2019-04-01 05:00:00 9.7 4 Nordeste 17 Nordeste 0 -- -- 81
2019-04-01 04:00:00 9.8 5 Nordeste 17 Nordeste 0 -- -- 79
2019-04-01 03:00:00 10.3 5 Nordeste 13 Nordeste 0 -- -- 74
2019-04-01 02:00:00 11 4 Nordeste 13 Norte 0 -- -- 68
2019-04-01 01:00:00 12 3 Nordeste 13 Nordeste 0 -- -- 64
2019-04-01 00:00:00 13.1 3 Nordeste 9 Nordeste 0 -- -- 56
2019-03-31 23:00:00 14.7 0 Calma 19 Sudeste 0 -- -- 49
2019-03-31 22:00:00 16 2 Oeste 19 Nordeste 0 -- -- 44
2019-03-31 21:00:00 16.1 3 Nordeste 22 Nordeste 0 -- -- 46
2019-03-31 20:00:00 17.2 5 Nordeste 21 Nordeste 0 -- -- 43
2019-03-31 19:00:00 17.9 4 Nordeste 28 Nordeste 0 -- -- 38
2019-03-31 18:00:00 17.5 10 Nordeste 33 Nordeste 0 -- -- 38
2019-03-31 17:00:00 20.5 2 Noroeste 17 Oeste 0 -- -- 34
2019-03-31 16:00:00 19.9 4 Sudoeste 19 Sudoeste 0 -- -- 34
2019-03-31 15:00:00 22.6 2 Norte 13 Nordeste 0 -- -- 34
2019-03-31 14:00:00 21 5 Nordeste 18 Nordeste 0 -- -- 41
2019-03-31 13:00:00 18.7 6 Nordeste 15 Nordeste 0 -- -- 46
2019-03-31 12:00:00 15 4 Nordeste 13 Norte 0 -- -- 58
2019-03-31 11:00:00 11.1 6 Nordeste 14 Nordeste 0 -- -- 69
2019-03-31 10:00:00 8.6 4 Nordeste 13 Nordeste 0 -- -- 79
2019-03-31 09:00:00 5.8 5 Nordeste 14 Nordeste 0 -- -- 90
2019-03-31 08:00:00 5.4 4 Nordeste 14 Nordeste 0 -- -- 94
2019-03-31 07:00:00 6.2 5 Nordeste 15 Nordeste 0 -- -- 94
2019-03-31 06:00:00 6.3 5 Nordeste 12 Nordeste 0 -- -- 95
2019-03-31 05:00:00 7.3 5 Nordeste 13 Nordeste 0 -- -- 95
2019-03-31 03:00:00 8.8 4 Nordeste 12 Nordeste 0 -- -- 93
2019-03-31 01:00:00 9.3 0 Calma 12 Nordeste 0 -- -- 92
2019-03-31 00:00:00 10.1 2 Nordeste 10 Nordeste 0 -- -- 90
2019-03-30 23:00:00 11.1 6 Nordeste 15 Nordeste 0 -- -- 85
2019-03-30 22:00:00 12.5 4 Nordeste 18 Nordeste 0 -- -- 76
2019-03-30 21:00:00 14.1 6 Nordeste 12 Nordeste 0 -- -- 60
2019-03-30 20:00:00 16.6 2 Norte 7 Norte 0 -- -- 39
2019-03-30 19:00:00 18.6 3 Noroeste 12 Norte 0 -- -- 33
2019-03-30 18:00:00 19.4 4 Oeste 21 Sudoeste 0 -- -- 34
2019-03-30 17:00:00 20.2 5 Oeste 22 Sudoeste 0 -- -- 31
2019-03-30 16:00:00 21 3 Noroeste 16 Oeste 0 -- -- 30
2019-03-30 15:00:00 21.7 4 Oeste 21 Sudoeste 0 -- -- 33
2019-03-30 14:00:00 21.3 4 Sudoeste 17 Oeste 0 -- -- 36
2019-03-30 13:00:00 19.9 4 Oeste 15 Oeste 0 -- -- 39
2019-03-30 12:00:00 17.7 4 Sudoeste 11 Oeste 0 -- -- 45
2019-03-30 11:00:00 14.8 0 Calma 8 Sudeste 0 -- -- 55
2019-03-30 10:00:00 11.5 3 Sudeste 8 Sudeste 0 -- -- 67
2019-03-30 09:00:00 7.3 2 Nordeste 5 Norte 0 -- -- 83
2019-03-30 08:00:00 4.8 3 Nordeste 9 Nordeste 0 -- -- 88
2019-03-30 07:00:00 5 0 Calma 9 Nordeste 0 -- -- 85
2019-03-30 06:00:00 5.6 3 Nordeste 10 Nordeste 0 -- -- 82
2019-03-30 05:00:00 6.3 4 Nordeste 9 Nordeste 0 -- -- 79
2019-03-30 04:00:00 6.5 0 Calma 9 Norte 0 -- -- 76
2019-03-30 03:00:00 7.6 3 Nordeste 8 Nordeste 0 -- -- 72
2019-03-30 02:00:00 8 3 Nordeste 9 Nordeste 0 -- -- 70
2019-03-30 01:00:00 8.7 0 Calma 6 Nordeste 0 -- -- 67
2019-03-30 00:00:00 9.2 0 Calma -- -- 0 -- -- 62
2019-03-29 23:00:00 10.3 0 Calma -- -- 0 -- -- 56
2019-03-29 22:00:00 11.8 0 Calma -- -- 0 -- -- 50
2019-03-29 21:00:00 13.4 0 Calma -- -- 0 -- -- 45
2019-03-29 20:00:00 15.8 0 Calma 9 Sudoeste 0 -- -- 41
2019-03-29 19:00:00 17.7 0 Calma 19 Oeste 0 -- -- 38
2019-03-29 18:00:00 17.9 9 Sudoeste 23 Oeste 0 -- -- 37
2019-03-29 17:00:00 19.9 6 Sudoeste 24 Oeste 0 -- -- 35
2019-03-29 16:00:00 21.7 8 Sudoeste 26 Sudoeste 0 -- -- 34
2019-03-29 15:00:00 22.5 6 Sudoeste 18 Oeste 0 -- -- 34
2019-03-29 14:00:00 22.4 5 Sudoeste 15 Sudoeste 0 -- -- 36
2019-03-29 13:00:00 22 4 Sudoeste 14 Oeste 0 -- -- 38
2019-03-29 12:00:00 20 2 Oeste 10 Sudeste 0 -- -- 42
2019-03-29 11:00:00 15.8 2 Nordeste 8 Nordeste 0 -- -- 59
2019-03-29 10:00:00 12.1 4 Nordeste 10 Nordeste 0 -- -- 71
2019-03-29 09:00:00 9.5 5 Nordeste 12 Nordeste 0 -- -- 81
2019-03-29 08:00:00 7 5 Nordeste 11 Nordeste 0 -- -- 87
2019-03-29 07:00:00 6.9 3 Nordeste 12 Nordeste 0 -- -- 86
2019-03-29 06:00:00 7.4 2 Nordeste 12 Nordeste 0 -- -- 85
2019-03-29 05:00:00 7.9 4 Nordeste 14 Nordeste 0 -- -- 83
2019-03-29 04:00:00 8.3 4 Nordeste 14 Nordeste 0 -- -- 80
2019-03-29 03:00:00 9.1 4 Nordeste 14 Nordeste 0 -- -- 75
2019-03-29 02:00:00 9.7 3 Nordeste 12 Nordeste 0 -- -- 72
2019-03-29 01:00:00 10.1 7 Nordeste 17 Norte 0 -- -- 69
2019-03-29 00:00:00 10.9 4 Nordeste 16 Nordeste 0 -- -- 64
2019-03-28 23:00:00 11.8 6 Nordeste 18 Nordeste 0 -- -- 60
2019-03-28 22:00:00 13.4 7 Nordeste 20 Nordeste 0 -- -- 54
2019-03-28 21:00:00 15.2 5 Nordeste 18 Norte 0 -- -- 48
2019-03-28 20:00:00 17.2 6 Nordeste 24 Nordeste 0 -- -- 43
2019-03-28 19:00:00 19.1 9 Nordeste 26 Nordeste 0 -- -- 40
2019-03-28 18:00:00 21.1 9 Nordeste 22 Nordeste 0 -- -- 37
2019-03-28 17:00:00 22.2 8 Nordeste 17 Nordeste 0 -- -- 34
2019-03-28 16:00:00 22.9 5 Este 20 Sudeste 0 -- -- 33
2019-03-28 15:00:00 23.1 4 Nordeste 21 Nordeste 0 -- -- 33
2019-03-28 14:00:00 22.6 4 Nordeste 16 Nordeste 0 -- -- 34
2019-03-28 13:00:00 20.4 5 Nordeste 17 Norte 0 -- -- 38
2019-03-28 12:00:00 18 8 Nordeste 19 Nordeste 0 -- -- 42
2019-03-28 11:00:00 15.2 4 Nordeste 15 Nordeste 0 -- -- 50
2019-03-28 10:00:00 11.7 5 Nordeste 19 Nordeste 0 -- -- 57
2019-03-28 09:00:00 9.8 8 Nordeste 18 Nordeste 0 -- -- 61
2019-03-28 08:00:00 7.4 4 Nordeste 18 Nordeste 0 -- -- 65
2019-03-28 07:00:00 7.8 4 Nordeste 15 Nordeste 0 -- -- 65
2019-03-28 06:00:00 8.1 7 Nordeste 18 Nordeste 0 -- -- 66
2019-03-28 05:00:00 8.2 4 Nordeste 16 Nordeste 0 -- -- 65
2019-03-28 04:00:00 8.5 4 Nordeste 14 Nordeste 0 -- -- 65
2019-03-28 03:00:00 8.7 4 Nordeste 19 Nordeste 0 -- -- 65
2019-03-28 02:00:00 9 7 Nordeste 21 Nordeste 0 -- -- 64
2019-03-28 01:00:00 9.8 6 Nordeste 17 Nordeste 0 -- -- 58
2019-03-28 00:00:00 10.5 4 Este 14 Nordeste 0 -- -- 54
2019-03-27 23:00:00 11.4 3 Nordeste 16 Nordeste 0 -- -- 50
2019-03-27 22:00:00 12.5 4 Nordeste 18 Nordeste 0 -- -- 47
2019-03-27 21:00:00 14.2 5 Nordeste 16 Nordeste 0 -- -- 43
2019-03-27 20:00:00 16.6 4 Nordeste 24 Nordeste 0 -- -- 39
2019-03-27 19:00:00 19.2 7 Nordeste 26 Norte 0 -- -- 35
2019-03-27 18:00:00 20.9 7 Nordeste 23 Nordeste 0 -- -- 31
2019-03-27 17:00:00 22.8 5 Nordeste 24 Norte 0 -- -- 27
2019-03-27 16:00:00 23.7 5 Nordeste 24 Nordeste 0 -- -- 26
2019-03-27 15:00:00 23.4 4 Este 22 Sudeste 0 -- -- 26
2019-03-27 14:00:00 22.7 4 Sudeste 15 Sudeste 0 -- -- 27
2019-03-27 13:00:00 20.4 3 Este 15 Sudeste 0 -- -- 31
2019-03-27 12:00:00 17.3 5 Nordeste 21 Este 0 -- -- 36
2019-03-27 11:00:00 15.1 4 Nordeste 19 Sudeste 0 -- -- 42
2019-03-27 10:00:00 11.2 5 Nordeste 17 Norte 0 -- -- 52
2019-03-27 09:00:00 9.7 5 Nordeste 17 Nordeste 0 -- -- 54
2019-03-27 08:00:00 5.7 3 Nordeste 13 Nordeste 0 -- -- 70
2019-03-27 07:00:00 6.1 0 Calma 10 Nordeste 0 -- -- 71
2019-03-27 06:00:00 7.1 3 Este 15 Sudeste 0 -- -- 68
2019-03-27 05:00:00 7.8 4 Este 12 Este 0 -- -- 68
2019-03-27 04:00:00 7.5 4 Este 12 Este 0 -- -- 72
2019-03-27 03:00:00 7.4 3 Nordeste 10 Norte 0 -- -- 73
2019-03-27 02:00:00 7.4 2 Nordeste 8 Sudoeste 0 -- -- 73
2019-03-27 01:00:00 8.4 0 Calma 11 Nordeste 0 -- -- 69
2019-03-27 00:00:00 9.1 2 Nordeste 10 Nordeste 0 -- -- 65
2019-03-26 23:00:00 10.1 0 Calma 11 Este 0 -- -- 61
2019-03-26 22:00:00 11 3 Nordeste 14 Nordeste 0 -- -- 57
2019-03-26 21:00:00 12.4 4 Nordeste 18 Nordeste 0 -- -- 51
2019-03-26 20:00:00 14.2 5 Este 29 Este 0 -- -- 46
2019-03-26 19:00:00 16.5 8 Nordeste 35 Sur 0 -- -- 42
2019-03-26 18:00:00 18.3 9 Nordeste 30 Nordeste 0 -- -- 39
2019-03-26 17:00:00 19.9 7 Nordeste 38 Nordeste 0 -- -- 38
2019-03-26 16:00:00 20.5 10 Nordeste 33 Nordeste 0 -- -- 37
2019-03-26 15:00:00 21.3 7 Nordeste 27 Nordeste 0 -- -- 33
2019-03-26 14:00:00 20 6 Este 28 Sudeste 0 -- -- 34
2019-03-26 13:00:00 18.5 8 Este 33 Este 0 -- -- 39
2019-03-26 12:00:00 16.1 6 Este 22 Este 0 -- -- 47
2019-03-26 11:00:00 13.6 7 Este 22 Sudeste 0 -- -- 53
2019-03-26 10:00:00 11.1 4 Este 17 Este 0 -- -- 60
2019-03-26 09:00:00 9.5 3 Este 15 Este 0 -- -- 63
2019-03-26 08:00:00 8 3 Nordeste 24 Este 0 -- -- 65
2019-03-26 07:00:00 7.8 4 Este 20 Sudeste 0 -- -- 65
2019-03-26 06:00:00 7.4 2 Nordeste 21 Este 0 -- -- 67
2019-03-26 05:00:00 8 6 Nordeste 22 Nordeste 0 -- -- 65
2019-03-26 04:00:00 8.4 6 Nordeste 19 Norte 0 -- -- 64
2019-03-26 03:00:00 9.2 2 Este 17 Nordeste 0 -- -- 61
2019-03-26 02:00:00 10.2 3 Nordeste 18 Norte 0 -- -- 56
2019-03-26 01:00:00 10.2 6 Nordeste 20 Norte 0 -- -- 59
2019-03-26 00:00:00 10.4 5 Nordeste 17 Nordeste 0 -- -- 61
2019-03-25 23:00:00 10.8 6 Nordeste 23 Norte 0 -- -- 61
2019-03-25 22:00:00 11.1 6 Nordeste 30 Nordeste 0 -- -- 60
2019-03-25 21:00:00 12 6 Nordeste 29 Nordeste 0 -- -- 57
2019-03-25 20:00:00 13.5 7 Nordeste 30 Nordeste 0 -- -- 54
2019-03-25 19:00:00 15.2 7 Nordeste 28 Nordeste 0 -- -- 52
2019-03-25 18:00:00 16.8 8 Nordeste 32 Nordeste 0 -- -- 48
2019-03-25 17:00:00 18.9 8 Nordeste 30 Norte 0 -- -- 45
2019-03-25 16:00:00 19.5 7 Nordeste 26 Nordeste 0 -- -- 45
2019-03-25 15:00:00 19.8 5 Nordeste 25 Nordeste 0 -- -- 44
2019-03-25 14:00:00 19.4 8 Nordeste 23 Nordeste 0 -- -- 47
2019-03-25 13:00:00 18.2 5 Nordeste 21 Sudeste 0 -- -- 50
2019-03-25 12:00:00 16.2 5 Nordeste 20 Este 0 -- -- 53
2019-03-25 11:00:00 14.6 5 Este 24 Sudeste 0 -- -- 61
2019-03-25 10:00:00 12 5 Nordeste 19 Nordeste 0 -- -- 73
2019-03-25 09:00:00 9.2 9 Nordeste 20 Nordeste 0 -- -- 86
2019-03-25 08:00:00 7.8 8 Nordeste 18 Norte 0 -- -- 87
2019-03-25 07:00:00 7.9 5 Nordeste 16 Nordeste 0 -- -- 84
2019-03-25 06:00:00 8.5 4 Nordeste 14 Nordeste 0 -- -- 79
2019-03-25 05:00:00 9.1 4 Nordeste 13 Nordeste 0 -- -- 71
2019-03-25 04:00:00 9.4 3 Nordeste 13 Nordeste 0 -- -- 64
2019-03-25 03:00:00 10.3 4 Nordeste 15 Nordeste 0 -- -- 64
2019-03-25 02:00:00 10.5 4 Nordeste 12 Norte 0 -- -- 59
2019-03-25 01:00:00 11.3 3 Nordeste 13 Nordeste 0 -- -- 54
2019-03-25 00:00:00 11.9 3 Nordeste 11 Nordeste 0 -- -- 50
2019-03-24 23:00:00 12.5 3 Nordeste 14 Nordeste 0 -- -- 48
2019-03-24 22:00:00 13.3 4 Nordeste 23 Nordeste 0 -- -- 46
2019-03-24 21:00:00 14.4 8 Nordeste 26 Nordeste 0 -- -- 44
2019-03-24 20:00:00 16.3 6 Nordeste 29 Norte 0 -- -- 42
2019-03-24 19:00:00 18.7 13 Nordeste 35 Norte 0 -- -- 45
2019-03-24 18:00:00 21.7 9 Nordeste 31 Nordeste 0 -- -- 41
2019-03-24 17:00:00 23.4 6 Nordeste 24 Nordeste 0 -- -- 35
2019-03-24 16:00:00 23.3 6 Nordeste 26 Norte 0 -- -- 36
2019-03-24 15:00:00 23.2 9 Nordeste 26 Norte 0 -- -- 38
2019-03-24 14:00:00 22.4 4 Nordeste 21 Nordeste 0 -- -- 40
2019-03-24 13:00:00 20.2 7 Nordeste 23 Nordeste 0 -- -- 44
2019-03-24 12:00:00 18.2 6 Nordeste 19 Norte 0 -- -- 47
2019-03-24 11:00:00 15.8 7 Nordeste 26 Nordeste 0 -- -- 53
2019-03-24 10:00:00 12.2 15 Nordeste 29 Nordeste 0 -- -- 61
2019-03-24 09:00:00 9.9 5 Nordeste 16 Nordeste 0 -- -- 65
2019-03-24 08:00:00 7.9 8 Nordeste 17 Nordeste 0 -- -- 69
2019-03-24 07:00:00 8 4 Nordeste 17 Nordeste 0 -- -- 66
2019-03-24 06:00:00 8.8 0 Calma 15 Nordeste 0 -- -- 62
2019-03-24 05:00:00 9.4 2 Nordeste 9 Nordeste 0 -- -- 58
2019-03-24 04:00:00 10.3 0 Calma 4 Este 0 -- -- 56
2019-03-24 03:00:00 10.6 0 Calma 11 Nordeste 0 -- -- 56
2019-03-24 02:00:00 11.4 2 Nordeste 12 Nordeste 0 -- -- 54
2019-03-24 01:00:00 12.4 4 Nordeste 17 Nordeste 0 -- -- 51
2019-03-24 00:00:00 13 8 Nordeste 21 Nordeste 0 -- -- 50
2019-03-23 23:00:00 13 7 Nordeste 19 Nordeste 0 -- -- 49
2019-03-23 22:00:00 13.9 9 Nordeste 18 Nordeste 0 -- -- 44
2019-03-23 21:00:00 14.8 8 Nordeste 18 Norte 0 -- -- 41
2019-03-23 20:00:00 16.1 5 Nordeste 19 Nordeste 0 -- -- 38
2019-03-23 19:00:00 18.6 8 Norte 26 Norte 0 -- -- 35
2019-03-23 18:00:00 21 8 Norte 21 Nordeste 0 -- -- 32
2019-03-23 17:00:00 22.9 3 Sur 11 Este 0 -- -- 29
2019-03-23 16:00:00 22.8 4 Norte 14 Sudoeste 0 -- -- 30
2019-03-23 15:00:00 23.4 2 Norte 13 Sudoeste 0 -- -- 30
2019-03-23 14:00:00 22.2 4 Oeste 12 Sudoeste 0 -- -- 33
2019-03-23 13:00:00 20.8 0 Calma 9 Este 0 -- -- 36
2019-03-23 12:00:00 18.1 0 Calma 8 Nordeste 0 -- -- 46
2019-03-23 11:00:00 13.7 5 Nordeste 10 Nordeste 0 -- -- 64
2019-03-23 10:00:00 9.7 3 Nordeste 12 Nordeste 0 -- -- 77
2019-03-23 09:00:00 7 4 Nordeste 14 Nordeste 0 -- -- 86
2019-03-23 08:00:00 5.2 4 Nordeste 14 Nordeste 0 -- -- 90
2019-03-23 07:00:00 5.3 7 Nordeste 14 Nordeste 0 -- -- 90
2019-03-23 06:00:00 6.1 5 Nordeste 15 Nordeste 0 -- -- 90
2019-03-23 05:00:00 6.2 7 Nordeste 17 Nordeste 0 -- -- 91
2019-03-23 04:00:00 6.4 7 Nordeste 15 Nordeste 0 -- -- 93
2019-03-23 03:00:00 7.2 5 Nordeste 12 Nordeste 0 -- -- 92
2019-03-23 02:00:00 7.5 3 Nordeste 10 Nordeste 0 -- -- 89
2019-03-23 01:00:00 8.3 0 Calma 9 Nordeste 0 -- -- 86
2019-03-23 00:00:00 8.9 0 Calma 9 Nordeste 0 -- -- 83
2019-03-22 23:00:00 10.1 0 Calma 16 Norte 0 -- -- 78
2019-03-22 22:00:00 11.3 7 Nordeste 17 Nordeste 0 -- -- 72
2019-03-22 21:00:00 12.9 5 Nordeste 15 Nordeste 0 -- -- 71
2019-03-22 20:00:00 14.9 8 Nordeste 17 Nordeste 0 -- -- 60
2019-03-22 19:00:00 17.7 5 Norte 12 Norte 0 -- -- 40
2019-03-22 18:00:00 18.8 4 Oeste 13 Oeste 0 -- -- 34
2019-03-22 17:00:00 19.8 3 Noroeste 14 Oeste 0 -- -- 33
2019-03-22 16:00:00 20.4 4 Oeste 18 Oeste 0 -- -- 33
2019-03-22 15:00:00 20.4 4 Oeste 14 Sudoeste 0 -- -- 35
2019-03-22 14:00:00 19.5 5 Sudoeste 16 Oeste 0 -- -- 35
2019-03-22 13:00:00 18.3 4 Noroeste 12 Oeste 0 -- -- 39
2019-03-22 12:00:00 16.7 3 Sudoeste 9 Oeste 0 -- -- 46
2019-03-22 11:00:00 14.2 3 Sur 9 Sudeste 0 -- -- 55
2019-03-22 10:00:00 10.2 0 Calma 6 Sudeste 0 -- -- 78
2019-03-22 09:00:00 6.5 0 Calma 6 Nordeste 0 -- -- 89
2019-03-22 08:00:00 4.2 0 Calma 4 Nordeste 0 -- -- 91
2019-03-22 07:00:00 4.6 0 Calma 8 Nordeste 0 -- -- 91
2019-03-22 06:00:00 5.1 0 Calma 9 Nordeste 0 -- -- 91
2019-03-22 05:00:00 5.6 2 Nordeste 7 Nordeste 0 -- -- 88
2019-03-22 04:00:00 5.8 0 Calma 7 Nordeste 0 -- -- 87
2019-03-22 03:00:00 6.5 0 Calma 6 Nordeste 0 -- -- 86
2019-03-22 02:00:00 6.8 0 Calma 3 Nordeste 0 -- -- 84
2019-03-22 01:00:00 7.6 0 Calma 5 Norte 0 -- -- 83
2019-03-22 00:00:00 8.6 0 Calma 3 Nordeste 0 -- -- 80
2019-03-21 23:00:00 9.7 0 Calma -- -- 0 -- -- 75
2019-03-21 22:00:00 11.1 0 Calma 3 Oeste 0 -- -- 67
2019-03-21 21:00:00 13.1 2 Sudoeste 7 Sudoeste 0 -- -- 54
2019-03-21 20:00:00 15 0 Calma 9 Noroeste 0 -- -- 51
2019-03-21 19:00:00 17 3 Noroeste 13 Norte 0 -- -- 44
2019-03-21 18:00:00 18.4 6 Oeste 18 Sudoeste 0 -- -- 41
2019-03-21 17:00:00 19.5 4 Sur 13 Sudeste 0 -- -- 38
2019-03-21 16:00:00 20.1 2 Norte 14 Sur 0 -- -- 39
2019-03-21 15:00:00 19.5 2 Norte 10 Sur 0 -- -- 41
2019-03-21 14:00:00 18.3 4 Sur 12 Nordeste 0 -- -- 44
2019-03-21 13:00:00 16.9 3 Nordeste 12 Sudeste 0 -- -- 47
2019-03-21 12:00:00 15.2 0 Calma 10 Norte 0 -- -- 50
2019-03-21 11:00:00 12.1 5 Nordeste 13 Nordeste 0 -- -- 61
2019-03-21 10:00:00 9.1 7 Nordeste 14 Nordeste 0 -- -- 72
2019-03-21 09:00:00 6.9 3 Nordeste 12 Nordeste 0 -- -- 78
2019-03-21 08:00:00 5.3 3 Nordeste 14 Nordeste 0 -- -- 82
2019-03-21 07:00:00 5.9 5 Nordeste 19 Nordeste 0 -- -- 82
2019-03-21 06:00:00 6.1 8 Nordeste 22 Nordeste 0 -- -- 82
2019-03-21 05:00:00 6.1 8 Nordeste 21 Nordeste 0 -- -- 82
2019-03-21 04:00:00 6.6 8 Nordeste 20 Nordeste 0 -- -- 82
2019-03-21 03:00:00 6.8 4 Nordeste 15 Nordeste 0 -- -- 81
2019-03-21 02:00:00 7.2 3 Nordeste 9 Nordeste 0 -- -- 79
2019-03-21 01:00:00 8.1 2 Este 12 Nordeste 0 -- -- 76
2019-03-21 00:00:00 8.5 0 Calma 13 Nordeste 0 -- -- 75